NWS Home NWS Lubbock West Texas Mesonet Latest Conditions as of 0505 PM, Fri Dec 09, 2016

Latest   N   C   S   Daily Sum   3hrΔ   24hrΔ   Soil Data 
Site Map   24hr Precip   72hr Precip   Google Plot


Station Time of Last Temp Dew Pt. RH Wind Direction Wind Speed Wind Gust Max Wind Max Temp Min Temp Max RH Min RH Altimeter 1HR Rain Today's Rain Solar Rad Wind Chill
Abernathy 5ENE  05:00 PM 39 30 71% SW1420 29 mph 221° @ 0205 PM 39 23 83 67 30.26" 0 0 116  
Aiken 3WSW  05:00 PM 38 29 68% S1620 31 mph 199° @ 0141 PM 40 24 77 60 30.24" 0 0 107  
Amarillo 15NNW   05:00 PM 47 29 50% S1012 31 mph 192° @ 1033 AM 49 25 76 45 30.18" 0 0 50  
Amarillo 7SSE  05:00 PM 41 28 60% S1316 28 mph 198° @ 1226 PM 48 23 77 47 30.21" 0 0 42  
Amarillo 9NNE  05:00 PM 44 29 57% S1517 34 mph 203° @ 1144 AM 48 24 76 48 30.18" 0 0 46  
Amherst 1NE  05:00 PM 40 30 70% S1419 28 mph 199° @ 0145 PM 40 25 87 67 30.22" 0 0 130  
Andrews 2E  05:00 PM 44 31 60% S1115 19 mph 187° @ 0430 PM 44 26 83 59 30.29" 0 0 124  
Anton 6SSW  05:00 PM 40 31 73% SW1520 31 mph 201° @ 0310 PM 41 25 90 69 30.24" 0 0 112  
Aspermont 3NE  05:00 PM 40 24 53% S1014 20 mph 172° @ 0305 PM 40 20 92 48 30.36" 0 0 25  
Big Bend NP - Persimmon Gap  05:00 PM 49 34 56% S810 24 mph 37° @ 1211 AM 50 32 78 54 30.34" 0 0 148  
Big Lake 1WNW  05:00 PM 43 29 58% S1114 20 mph 173° @ 0406 PM 45 26 81 52 30.34" 0 0 84  
Bootleg 11WNW  05:00 PM 47 29 49% SW910 36 mph 209° @ 0917 AM 50 23 92 45 30.18" 0 0 91  
Boys Ranch 1WSW  05:00 PM 49 28 44% NE45 23 mph 212° @ 0732 AM 55 26 75 34 30.16" 0 0 42  
Brownfield 2S  05:00 PM 40 30 68% SW1822 25 mph 219° @ 0225 PM 40 22 86 67 30.26" 0 0 104  
Canadian 6E  05:00 PM 35 19 52% SE1214 27 mph 185° @ 0128 PM 39 24 58 43 30.27" 0 0 66 26
Caprock Canyons State Park  05:00 PM 39 28 64% S1214 29 mph 197° @ 0138 PM 42 24 79 53 30.28" 0 0 41  
Childress 2NNE  05:00 PM 36 21 54% S1216 23 mph 169° @ 1120 AM 37 27 63 44 30.33" 0 0 68  
Clarendon 2WSW  05:00 PM 39 27 63% S1013 26 mph 181° @ 1145 AM 41 24 69 50 30.26" 0 0 37  
Claude 12SW  05:00 PM 35 28 74% S1518 29 mph 196° @ 1211 PM 40 23 74 52 30.22" 0 0 20 25
Clyde 2WNW  05:00 PM 39 20 46% S1114 19 mph 163° @ 0438 PM 41 25 75 42 30.39" 0 0.01 60  
Coyanosa 2N  05:00 PM 48 34 59% E45 13 mph 118° @ 1004 AM 49 29 82 56 30.30" 0 0.01 104  
Dell City  05:00 PM 42 32 68% E23 16 mph 142° @ 1218 AM 43 28 93 64 30.33" 0 0 160  
Denver City 7WNW  04:30 PM 40 30 68% SW1519 26 mph 207° @ 1255 PM 40 24 97 67 30.25" 0 0 208  
Dimmitt 2NE  05:00 PM 42 30 64% S1316 32 mph 194° @ 0130 PM 46 24 88 54 30.19" 0 0 139  
Dora NM 2SW  05:00 PM 44 28 55% SW1719 28 mph 217° @ 0130 PM 46 24 100 50 30.20" 0 0 104  
Dozier 3W  05:00 PM 35 20 52% SE1115 25 mph 170° @ 1247 PM 39 26 61 47 30.31" 0 0 68 27
Floydada 2NNE  05:00 PM 37 27 69% S1622 32 mph 207° @ 0210 PM 39 22 81 61 30.26" 0 0 86  
Fluvanna 3WNW  05:00 PM 37 26 65% S1419 22 mph 194° @ 0315 PM 37 21 89 63 30.29" 0 0 45  
Fort Chadbourne  05:00 PM 41 25 53% S77 16 mph 177° @ 0248 PM 43 26 77 46 30.38" 0 0.03 34  
Fort Lancaster  05:00 PM 44 29 56% SE1215 16 mph 150° @ 0447 PM 46 30 76 52 30.36" 0 0 120  
Fort Lewis CO  05:00 PM 40 23 50% W1113 15 mph 254° @ 0410 PM 42 19 81 42 30.29" 0 0 147  
Fort McKavett  05:00 PM 43 25 49% S46 13 mph 160° @ 0405 PM 45 26 86 38 30.40" 0 0 30  
Friona 2NE  05:00 PM 48 30 49% S1318 30 mph 207° @ 1255 PM 49 24 92 48 30.18" 0 0 122  
Gail 2ESE  05:00 PM 39 27 61% S1115 19 mph 191° @ 0350 PM 40 22 86 57 30.30" 0 0 50  
Goodlett 3W  05:00 PM 36 20 52% S1418 20 mph 163° @ 0130 PM 37 28 65 44 30.35" 0 0 23  
Goodnight  05:00 PM 36 28 71% S1215 30 mph 188° @ 1152 AM 41 24 72 54 30.25" 0 0 16  
Graham 5SSW  05:00 PM 37 26 66% S1620 20 mph 178° @ 0430 PM 37 22 84 65 30.28" 0 0 36  
Guadalupe Mtns Natl Park  04:50 PM 47 27 46% SW35 35 mph 207° @ 0147 PM 50 19 99 39 30.26" 0 0.25 153  
Guthrie 10WSW  05:00 PM 38 22 53% S1215 24 mph 191° @ 0220 PM 39 25 69 49 30.33" 0 0 20  
Hart 3N  05:00 PM 39 30 72% S1319 33 mph 205° @ 1240 PM 41 24 85 65 30.20" 0 0 113  
Haskell 1NW  05:00 PM 38 20 48% S1014 18 mph 183° @ 1255 PM 38 22 89 46 30.38" 0 0 25  
Hereford 2NW  05:00 PM 48 28 47% S912 30 mph 209° @ 1235 PM 49 24 84 45 30.18" 0 0 112  
Hobbs NM 5NW  05:00 PM 40 32 73% SW1115 24 mph 204° @ 0227 PM 40 25 99 69 30.28" 0 0 135  
Jayton 1SSE  05:00 PM 38 25 60% S1115 20 mph 192° @ 0250 PM 39 23 83 51 30.34" 0 0 28  
Junction 1SSW  05:00 PM 45 23 41% S68 15 mph 28° @ 0220 AM 46 28 72 37 30.41" 0 0 27  
Knox City 3NW  01:50 PM 37 19 49% S1217 19 mph 172° @ 1230 PM 37 28 78 48 30.45" 0 0 196  
Lake Alan Henry 1NW  05:00 PM 39 25 55% S811 19 mph 200° @ 0307 PM 40 24 74 50 30.31" 0 0 31  
Lamesa 2SE  05:00 PM 39 29 70% S1417 17 mph 184° @ 0235 PM 40 21 95 66 30.29" 0 0 36  
Levelland 4S  05:00 PM 39 29 67% SW1621 27 mph 211° @ 0250 PM 40 25 85 65 30.23" 0 0 117  
Lomax 1SSE  05:00 PM 44 31 59% S1012 18 mph 174° @ 0439 PM 44 24 86 57 30.32" 0 0.02 105  
Lubbock 3WNW TTU  05:00 PM 40 29 65% S1520 26 mph 194° @ 0255 PM 42 22 80 58 30.25" 0 0 111  
McCamey 1SSW  05:00 PM 48 32 54% SE1315 17 mph 135° @ 0426 PM 50 29 77 50 30.31" 0 0 125  
McLean 1E  05:00 PM 34 21 58% S1418 29 mph 179° @ 1215 PM 36 24 64 47 30.25" 0 0 43 25
Memphis 1NE  05:00 PM 37 23 56% SE1216 21 mph 166° @ 1225 PM 39 27 65 50 30.31" 0 0 49  
Menard 2NW   05:00 PM 43 24 46% SE35 13 mph 168° @ 0420 PM 45 24 92 34 30.41" 0 0.21 26  
Mertzon 3NNE  05:00 PM 44 26 49% S810 17 mph 165° @ 0156 PM 46 28 78 42 30.38" 0 0 42  
Morton 1ENE  05:00 PM 42 30 64% S1115 29 mph 195° @ 0325 PM 42 26 86 64 30.22" 0 0 99  
Muleshoe 2SSW  05:00 PM 47 31 55% SW1620 27 mph 201° @ 0155 PM 48 26 90 52 30.19" 0 0 129  
New Home  05:00 PM 40 29 66% S1519 24 mph 205° @ 0330 PM 40 22 83 64 30.28" 0 0 110  
Northfield 1S  05:00 PM 38 25 60% S1521 28 mph 188° @ 0105 PM 40 28 69 51 30.31" 0 0 25  
O'Donnell 1N  05:00 PM 37 26 64% S1317 20 mph 198° @ 0245 PM 38 22 87 64 30.28" 0 0 86  
Odell 4ENE  05:00 PM 35 18 49% SE1113 19 mph 169° @ 0343 PM 35 28 62 42 30.39" 0 0 15 27
Olton 6S  05:00 PM 38 29 71% S1720 31 mph 197° @ 0225 PM 39 25 83 65 30.23" 0 0 132  
Paducah 10SW  05:00 PM 37 24 60% S1014 23 mph 189° @ 0235 PM 37 27 65 48 30.34" 0 0 23  
Palo Duro Canyon SP Floor  05:00 PM 40 30 67% SE810 21 mph 141° @ 0330 PM 46 27 67 51 30.25" 0 0 22  
Palo Duro Canyon State Park Rim  05:00 PM 38 28 67% S1012 27 mph 209° @ 1228 PM 46 24 72 51 30.23" 0 0 30  
Pampa 2E  05:00 PM 36 26 66% S1418 30 mph 190° @ 1235 PM 39 23 72 49 30.23" 0 0 31  
Panhandle 1SSW  05:00 PM 35 27 72% S1315 33 mph 199° @ 1106 AM 39 23 73 50 30.22" 0 0 22 26
Plains 3N  05:00 PM 40 31 72% SW1721 26 mph 204° @ 1250 PM 40 25 100 72 30.23" 0 0 94  
Plainview 1S  05:00 PM 39 30 71% SW1418 31 mph 214° @ 0150 PM 39 25 83 66 30.23" 0 0 82  
Post 1NE  05:00 PM 39 25 58% S711 20 mph 188° @ 0315 PM 39 23 77 54 30.30" 0 0 43  
Ralls 1SE  05:00 PM 35 27 71% S1014 26 mph 205° @ 0335 PM 37 20 79 59 30.29" 0 0 48 27
Reese Center  05:00 PM 40 30 69% S1724 28 mph 210° @ 0310 PM 40 23 86 65 30.24" 0 0 102  
Roaring Springs 3N  05:00 PM 36 27 68% S1417 26 mph 194° @ 0150 PM 38 25 77 58 30.29" 0 0 29  
San Angelo 7NW  05:00 PM 45 26 47% S912 19 mph 165° @ 0325 PM 48 30 67 39 30.38" 0 0 31  
Seagraves 1SW  05:00 PM 41 31 69% S1218 24 mph 196° @ 0325 PM 42 23 88 65 30.26" 0 0 94  
Seminole 2NNE  05:00 PM 41 30 66% SW1417 22 mph 202° @ 0240 PM 43 23 88 62 30.27" 0 0 122  
Seymour 3NW  05:00 PM 37 18 45% SE1014 17 mph 153° @ 0435 PM 38 24 85 41 30.40" 0 0 30  
Sierra Blanca 1SSE  05:00 PM 46 34 64% S46 14 mph 158° @ 1140 AM 47 26 97 61 30.31" 0 0 171  
Silverton 7ESE  05:00 PM 38 26 62% S812 30 mph 211° @ 0105 PM 41 20 81 50 30.25" 0 0 29  
Slaton 2NE  05:00 PM 36 28 73% S1520 23 mph 197° @ 1235 PM 37 22 82 67 30.27" 0 0 95  
Snyder 3E  05:00 PM 39 28 64% S1014 20 mph 184° @ 0325 PM 39 22 90 62 30.32" 0 0 82  
Snyder 3SSW  05:00 PM 39 27 60% S810 19 mph 184° @ 0326 PM 40 23 84 58 30.33" 0 0 92  
Spur 1W  05:00 PM 38 25 60% S1013 22 mph 202° @ 0230 PM 38 24 75 55 30.32" 0 0 23  
St. Lawrence 5SW  05:00 PM 45 31 58% S1014 21 mph 189° @ 0340 PM 46 27 78 57 30.31" 0 0.04 97  
Sterling City 4WSW  05:00 PM 46 29 51% SE1012 17 mph 180° @ 0241 PM 47 24 93 46 30.33" 0 0.05 79  
Sundown 8WSW  05:00 PM 40 31 70% SW1521 25 mph 211° @ 0325 PM 40 25 94 69 30.23" 0 0 84  
Sweetwater 11SW   05:00 PM 39 27 61% S1214 19 mph 180° @ 0405 PM 40 21 91 59 30.34" 0 0.07 43  
Tahoka 3NNE  05:00 PM 38 28 67% S1112 22 mph 192° @ 0347 PM 39 21 82 62 30.27" 0 0 86  
Tarzan 2WNW  05:00 PM 42 30 63% S1214 18 mph 172° @ 0441 PM 42 25 87 61 30.30" 0 0 102  
Tatum NM 2SW  05:00 PM 42 30 62% SW1215 22 mph 216° @ 0205 PM 44 24 91 58 30.24" 0 0 126  
Throckmorton 1SW  05:00 PM 38 19 46% SE911 16 mph 170° @ 0130 PM 39 23 85 40 30.41" 0 0 20  
Tulia 2ENE  05:00 PM 37 31 79% S1316 33 mph 204° @ 0135 PM 39 24 84 70 30.22" 0 0 33  
Turkey 2WSW  05:00 PM 39 29 68% S1518 26 mph 186° @ 1100 AM 42 27 72 55 30.28" 0 0 43  
Umbarger 3NNE  05:00 PM 44 29 57% S99 31 mph 205° @ 0937 AM 49 23 82 47 30.19" 0 0 56  
Vigo Park  05:00 PM 36 28 71% S1011 32 mph 200° @ 1233 PM 39 24 74 56 30.25" 0 0 19  
Wall 1E  05:00 PM 45 27 49% S611 18 mph 17° @ 1230 AM 47 28 85 44 30.40" 0 0 23  
Weinert 2NNE  05:00 PM 38 21 51% S1315 18 mph 182° @ 0343 PM 38 22 88 47 30.39" 0 0 22  
Welch  05:00 PM 41 30 66% S1620 22 mph 205° @ 0405 PM 41 23 90 64 30.28" 0 0 108  
White River Lake 6NW  05:00 PM 37 23 57% S1014 24 mph 185° @ 0235 PM 37 23 75 56 30.30" 0 0 25  
Wolfforth 6SSW  05:00 PM 40 30 66% S1722 29 mph 206° @ 0350 PM 41 23 86 63 30.26" 0 0 97  

West Texas Mesonet Home   Site Map/Menu  NWS Lubbock Soil Data  Daily Summary Page  24hr Precip  72hr Precip  Google Plot